<?xml version="1.0" encoding="UTF-8" standalone="no" ?>
<gpx xmlns="http://www.topografix.com/GPX/1/1" xmlns:xsi="http://www.w3.org/2001/XMLSchema-instance" xsi:schemaLocation="http://www.topografix.com/GPX/1/1 http://www.topografix.com/GPX/1/1/gpx.xsd" version="1.1" creator="VisuGPX - https://www.visugpx.com">
  <metadata>
    <name>10657151-les rousses</name>
  </metadata>
  <trk>
    <name><![CDATA[10657151-les rousses]]></name>
    <trkseg>
      <trkpt lat="46.48489" lon="6.06006">
        <ele>1109</ele>
        <time>2021-09-15T12:28:09Z</time>
      </trkpt>
      <trkpt lat="46.48497" lon="6.06023">
        <ele>1110</ele>
        <time>2021-09-15T12:28:28Z</time>
      </trkpt>
      <trkpt lat="46.48477" lon="6.06029">
        <ele>1110</ele>
        <time>2021-09-15T12:28:55Z</time>
      </trkpt>
      <trkpt lat="46.48463" lon="6.06027">
        <ele>1110</ele>
        <time>2021-09-15T12:29:14Z</time>
      </trkpt>
      <trkpt lat="46.48443" lon="6.06032">
        <ele>1111</ele>
        <time>2021-09-15T12:29:41Z</time>
      </trkpt>
      <trkpt lat="46.48422" lon="6.06042">
        <ele>1111</ele>
        <time>2021-09-15T12:30:11Z</time>
      </trkpt>
      <trkpt lat="46.48398" lon="6.06066">
        <ele>1113</ele>
        <time>2021-09-15T12:30:49Z</time>
      </trkpt>
      <trkpt lat="46.4839" lon="6.06068">
        <ele>1113</ele>
        <time>2021-09-15T12:31:00Z</time>
      </trkpt>
      <trkpt lat="46.48387" lon="6.06077">
        <ele>1114</ele>
        <time>2021-09-15T12:31:09Z</time>
      </trkpt>
      <trkpt lat="46.48373" lon="6.06091">
        <ele>1115</ele>
        <time>2021-09-15T12:31:32Z</time>
      </trkpt>
      <trkpt lat="46.48358" lon="6.06115">
        <ele>1116</ele>
        <time>2021-09-15T12:32:02Z</time>
      </trkpt>
      <trkpt lat="46.48364" lon="6.06127">
        <ele>1117</ele>
        <time>2021-09-15T12:32:16Z</time>
      </trkpt>
      <trkpt lat="46.48364" lon="6.06131">
        <ele>1117</ele>
        <time>2021-09-15T12:32:19Z</time>
      </trkpt>
      <trkpt lat="46.48361" lon="6.06129">
        <ele>1117</ele>
        <time>2021-09-15T12:32:24Z</time>
      </trkpt>
      <trkpt lat="46.48363" lon="6.06133">
        <ele>1117</ele>
        <time>2021-09-15T12:32:28Z</time>
      </trkpt>
      <trkpt lat="46.48381" lon="6.06149">
        <ele>1119</ele>
        <time>2021-09-15T12:32:56Z</time>
      </trkpt>
      <trkpt lat="46.48403" lon="6.06187">
        <ele>1124</ele>
        <time>2021-09-15T12:33:42Z</time>
      </trkpt>
      <trkpt lat="46.48406" lon="6.06258">
        <ele>1128</ele>
        <time>2021-09-15T12:34:47Z</time>
      </trkpt>
      <trkpt lat="46.48426" lon="6.06313">
        <ele>1127</ele>
        <time>2021-09-15T12:35:44Z</time>
      </trkpt>
      <trkpt lat="46.48431" lon="6.06321">
        <ele>1127</ele>
        <time>2021-09-15T12:35:54Z</time>
      </trkpt>
      <trkpt lat="46.48439" lon="6.06324">
        <ele>1127</ele>
        <time>2021-09-15T12:36:05Z</time>
      </trkpt>
      <trkpt lat="46.48459" lon="6.06321">
        <ele>1127</ele>
        <time>2021-09-15T12:36:32Z</time>
      </trkpt>
      <trkpt lat="46.48456" lon="6.06327">
        <ele>1127</ele>
        <time>2021-09-15T12:36:39Z</time>
      </trkpt>
      <trkpt lat="46.48446" lon="6.06324">
        <ele>1127</ele>
        <time>2021-09-15T12:36:53Z</time>
      </trkpt>
      <trkpt lat="46.48438" lon="6.06331">
        <ele>1127</ele>
        <time>2021-09-15T12:37:05Z</time>
      </trkpt>
      <trkpt lat="46.48441" lon="6.06353">
        <ele>1126</ele>
        <time>2021-09-15T12:37:26Z</time>
      </trkpt>
      <trkpt lat="46.48457" lon="6.06383">
        <ele>1125</ele>
        <time>2021-09-15T12:38:01Z</time>
      </trkpt>
      <trkpt lat="46.48461" lon="6.06406">
        <ele>1125</ele>
        <time>2021-09-15T12:38:22Z</time>
      </trkpt>
      <trkpt lat="46.48474" lon="6.06435">
        <ele>1125</ele>
        <time>2021-09-15T12:38:54Z</time>
      </trkpt>
      <trkpt lat="46.48492" lon="6.06494">
        <ele>1125</ele>
        <time>2021-09-15T12:39:53Z</time>
      </trkpt>
      <trkpt lat="46.48519" lon="6.06554">
        <ele>1124</ele>
        <time>2021-09-15T12:40:59Z</time>
      </trkpt>
      <trkpt lat="46.48524" lon="6.0658">
        <ele>1123</ele>
        <time>2021-09-15T12:41:24Z</time>
      </trkpt>
      <trkpt lat="46.48539" lon="6.06615">
        <ele>1122</ele>
        <time>2021-09-15T12:42:02Z</time>
      </trkpt>
      <trkpt lat="46.4854" lon="6.06629">
        <ele>1121</ele>
        <time>2021-09-15T12:42:15Z</time>
      </trkpt>
      <trkpt lat="46.48571" lon="6.06723">
        <ele>1119</ele>
        <time>2021-09-15T12:43:51Z</time>
      </trkpt>
      <trkpt lat="46.48573" lon="6.06759">
        <ele>1118</ele>
        <time>2021-09-15T12:44:24Z</time>
      </trkpt>
      <trkpt lat="46.48583" lon="6.0677">
        <ele>1118</ele>
        <time>2021-09-15T12:44:41Z</time>
      </trkpt>
      <trkpt lat="46.48589" lon="6.06766">
        <ele>1117</ele>
        <time>2021-09-15T12:44:49Z</time>
      </trkpt>
      <trkpt lat="46.48604" lon="6.06726">
        <ele>1117</ele>
        <time>2021-09-15T12:45:31Z</time>
      </trkpt>
      <trkpt lat="46.48616" lon="6.06675">
        <ele>1116</ele>
        <time>2021-09-15T12:46:21Z</time>
      </trkpt>
      <trkpt lat="46.4863" lon="6.06656">
        <ele>1114</ele>
        <time>2021-09-15T12:46:46Z</time>
      </trkpt>
      <trkpt lat="46.48636" lon="6.06634">
        <ele>1113</ele>
        <time>2021-09-15T12:47:08Z</time>
      </trkpt>
      <trkpt lat="46.48643" lon="6.06624">
        <ele>1112</ele>
        <time>2021-09-15T12:47:21Z</time>
      </trkpt>
      <trkpt lat="46.48645" lon="6.06595">
        <ele>1111</ele>
        <time>2021-09-15T12:47:48Z</time>
      </trkpt>
      <trkpt lat="46.4864" lon="6.06554">
        <ele>1111</ele>
        <time>2021-09-15T12:48:26Z</time>
      </trkpt>
      <trkpt lat="46.48644" lon="6.06538">
        <ele>1110</ele>
        <time>2021-09-15T12:48:42Z</time>
      </trkpt>
      <trkpt lat="46.48651" lon="6.0653">
        <ele>1108</ele>
        <time>2021-09-15T12:48:54Z</time>
      </trkpt>
      <trkpt lat="46.48673" lon="6.06649">
        <ele>1108</ele>
        <time>2021-09-15T12:50:47Z</time>
      </trkpt>
      <trkpt lat="46.48686" lon="6.06674">
        <ele>1107</ele>
        <time>2021-09-15T12:51:16Z</time>
      </trkpt>
      <trkpt lat="46.48695" lon="6.06738">
        <ele>1108</ele>
        <time>2021-09-15T12:52:16Z</time>
      </trkpt>
      <trkpt lat="46.48709" lon="6.06755">
        <ele>1107</ele>
        <time>2021-09-15T12:52:40Z</time>
      </trkpt>
      <trkpt lat="46.4871" lon="6.06779">
        <ele>1107</ele>
        <time>2021-09-15T12:53:02Z</time>
      </trkpt>
      <trkpt lat="46.48731" lon="6.06871">
        <ele>1107</ele>
        <time>2021-09-15T12:54:31Z</time>
      </trkpt>
      <trkpt lat="46.48739" lon="6.06926">
        <ele>1108</ele>
        <time>2021-09-15T12:55:23Z</time>
      </trkpt>
      <trkpt lat="46.48745" lon="6.06943">
        <ele>1108</ele>
        <time>2021-09-15T12:55:41Z</time>
      </trkpt>
      <trkpt lat="46.48756" lon="6.06958">
        <ele>1108</ele>
        <time>2021-09-15T12:56:01Z</time>
      </trkpt>
      <trkpt lat="46.48767" lon="6.07001">
        <ele>1108</ele>
        <time>2021-09-15T12:56:43Z</time>
      </trkpt>
      <trkpt lat="46.48773" lon="6.07011">
        <ele>1108</ele>
        <time>2021-09-15T12:56:55Z</time>
      </trkpt>
      <trkpt lat="46.48772" lon="6.0702">
        <ele>1108</ele>
        <time>2021-09-15T12:57:03Z</time>
      </trkpt>
      <trkpt lat="46.4879" lon="6.07047">
        <ele>1109</ele>
        <time>2021-09-15T12:57:38Z</time>
      </trkpt>
      <trkpt lat="46.48813" lon="6.07048">
        <ele>1109</ele>
        <time>2021-09-15T12:58:09Z</time>
      </trkpt>
      <trkpt lat="46.48889" lon="6.07038">
        <ele>1113</ele>
        <time>2021-09-15T12:59:50Z</time>
      </trkpt>
      <trkpt lat="46.48901" lon="6.07038">
        <ele>1114</ele>
        <time>2021-09-15T13:00:06Z</time>
      </trkpt>
      <trkpt lat="46.48911" lon="6.07044">
        <ele>1115</ele>
        <time>2021-09-15T13:00:21Z</time>
      </trkpt>
      <trkpt lat="46.48912" lon="6.07064">
        <ele>1117</ele>
        <time>2021-09-15T13:00:39Z</time>
      </trkpt>
      <trkpt lat="46.4893" lon="6.07104">
        <ele>1121</ele>
        <time>2021-09-15T13:01:23Z</time>
      </trkpt>
      <trkpt lat="46.48945" lon="6.07118">
        <ele>1121</ele>
        <time>2021-09-15T13:01:47Z</time>
      </trkpt>
      <trkpt lat="46.48954" lon="6.07134">
        <ele>1122</ele>
        <time>2021-09-15T13:02:06Z</time>
      </trkpt>
      <trkpt lat="46.4897" lon="6.07187">
        <ele>1125</ele>
        <time>2021-09-15T13:02:59Z</time>
      </trkpt>
      <trkpt lat="46.48986" lon="6.07207">
        <ele>1125</ele>
        <time>2021-09-15T13:03:27Z</time>
      </trkpt>
      <trkpt lat="46.48997" lon="6.07211">
        <ele>1125</ele>
        <time>2021-09-15T13:03:42Z</time>
      </trkpt>
      <trkpt lat="46.4902" lon="6.07236">
        <ele>1122</ele>
        <time>2021-09-15T13:04:21Z</time>
      </trkpt>
      <trkpt lat="46.49037" lon="6.0728">
        <ele>1121</ele>
        <time>2021-09-15T13:05:07Z</time>
      </trkpt>
      <trkpt lat="46.49054" lon="6.07301">
        <ele>1120</ele>
        <time>2021-09-15T13:05:37Z</time>
      </trkpt>
      <trkpt lat="46.49058" lon="6.07319">
        <ele>1121</ele>
        <time>2021-09-15T13:05:54Z</time>
      </trkpt>
      <trkpt lat="46.49076" lon="6.07336">
        <ele>1122</ele>
        <time>2021-09-15T13:06:23Z</time>
      </trkpt>
      <trkpt lat="46.49082" lon="6.07361">
        <ele>1120</ele>
        <time>2021-09-15T13:06:47Z</time>
      </trkpt>
      <trkpt lat="46.49103" lon="6.07394">
        <ele>1114</ele>
        <time>2021-09-15T13:07:29Z</time>
      </trkpt>
      <trkpt lat="46.49118" lon="6.0744">
        <ele>1108</ele>
        <time>2021-09-15T13:08:15Z</time>
      </trkpt>
      <trkpt lat="46.49139" lon="6.07471">
        <ele>1104</ele>
        <time>2021-09-15T13:08:55Z</time>
      </trkpt>
      <trkpt lat="46.4915" lon="6.07479">
        <ele>1103</ele>
        <time>2021-09-15T13:09:12Z</time>
      </trkpt>
      <trkpt lat="46.49156" lon="6.07514">
        <ele>1102</ele>
        <time>2021-09-15T13:09:45Z</time>
      </trkpt>
      <trkpt lat="46.49163" lon="6.07526">
        <ele>1101</ele>
        <time>2021-09-15T13:09:59Z</time>
      </trkpt>
      <trkpt lat="46.49173" lon="6.07531">
        <ele>1099</ele>
        <time>2021-09-15T13:10:13Z</time>
      </trkpt>
      <trkpt lat="46.4919" lon="6.07564">
        <ele>1096</ele>
        <time>2021-09-15T13:10:51Z</time>
      </trkpt>
      <trkpt lat="46.49212" lon="6.07572">
        <ele>1093</ele>
        <time>2021-09-15T13:11:22Z</time>
      </trkpt>
      <trkpt lat="46.49255" lon="6.0756">
        <ele>1089</ele>
        <time>2021-09-15T13:12:20Z</time>
      </trkpt>
      <trkpt lat="46.49286" lon="6.07545">
        <ele>1088</ele>
        <time>2021-09-15T13:13:04Z</time>
      </trkpt>
      <trkpt lat="46.49408" lon="6.07507">
        <ele>1079</ele>
        <time>2021-09-15T13:15:50Z</time>
      </trkpt>
      <trkpt lat="46.49423" lon="6.07497">
        <ele>1078</ele>
        <time>2021-09-15T13:16:12Z</time>
      </trkpt>
      <trkpt lat="46.49436" lon="6.07496">
        <ele>1077</ele>
        <time>2021-09-15T13:16:29Z</time>
      </trkpt>
      <trkpt lat="46.49459" lon="6.07485">
        <ele>1076</ele>
        <time>2021-09-15T13:17:02Z</time>
      </trkpt>
      <trkpt lat="46.49463" lon="6.07477">
        <ele>1076</ele>
        <time>2021-09-15T13:17:11Z</time>
      </trkpt>
      <trkpt lat="46.49462" lon="6.07453">
        <ele>1076</ele>
        <time>2021-09-15T13:17:33Z</time>
      </trkpt>
      <trkpt lat="46.49438" lon="6.07376">
        <ele>1078</ele>
        <time>2021-09-15T13:18:51Z</time>
      </trkpt>
      <trkpt lat="46.49436" lon="6.07364">
        <ele>1079</ele>
        <time>2021-09-15T13:19:02Z</time>
      </trkpt>
      <trkpt lat="46.49439" lon="6.07353">
        <ele>1078</ele>
        <time>2021-09-15T13:19:13Z</time>
      </trkpt>
      <trkpt lat="46.49489" lon="6.07327">
        <ele>1075</ele>
        <time>2021-09-15T13:20:24Z</time>
      </trkpt>
      <trkpt lat="46.49509" lon="6.07329">
        <ele>1073</ele>
        <time>2021-09-15T13:20:50Z</time>
      </trkpt>
      <trkpt lat="46.49521" lon="6.07323">
        <ele>1073</ele>
        <time>2021-09-15T13:21:07Z</time>
      </trkpt>
      <trkpt lat="46.49524" lon="6.07325">
        <ele>1073</ele>
        <time>2021-09-15T13:21:12Z</time>
      </trkpt>
      <trkpt lat="46.49572" lon="6.07295">
        <ele>1070</ele>
        <time>2021-09-15T13:22:22Z</time>
      </trkpt>
      <trkpt lat="46.49598" lon="6.07286">
        <ele>1068</ele>
        <time>2021-09-15T13:22:57Z</time>
      </trkpt>
      <trkpt lat="46.49607" lon="6.07297">
        <ele>1068</ele>
        <time>2021-09-15T13:23:13Z</time>
      </trkpt>
      <trkpt lat="46.49627" lon="6.07336">
        <ele>1066</ele>
        <time>2021-09-15T13:23:58Z</time>
      </trkpt>
      <trkpt lat="46.49639" lon="6.07386">
        <ele>1065</ele>
        <time>2021-09-15T13:24:46Z</time>
      </trkpt>
      <trkpt lat="46.49656" lon="6.07409">
        <ele>1063</ele>
        <time>2021-09-15T13:25:17Z</time>
      </trkpt>
      <trkpt lat="46.49654" lon="6.07419">
        <ele>1063</ele>
        <time>2021-09-15T13:25:27Z</time>
      </trkpt>
      <trkpt lat="46.49632" lon="6.07448">
        <ele>1064</ele>
        <time>2021-09-15T13:26:06Z</time>
      </trkpt>
      <trkpt lat="46.49626" lon="6.07485">
        <ele>1064</ele>
        <time>2021-09-15T13:26:41Z</time>
      </trkpt>
      <trkpt lat="46.49627" lon="6.07511">
        <ele>1063</ele>
        <time>2021-09-15T13:27:05Z</time>
      </trkpt>
      <trkpt lat="46.49619" lon="6.07556">
        <ele>1062</ele>
        <time>2021-09-15T13:27:48Z</time>
      </trkpt>
      <trkpt lat="46.49625" lon="6.07585">
        <ele>1060</ele>
        <time>2021-09-15T13:28:16Z</time>
      </trkpt>
      <trkpt lat="46.49622" lon="6.07626">
        <ele>1059</ele>
        <time>2021-09-15T13:28:54Z</time>
      </trkpt>
      <trkpt lat="46.49625" lon="6.07735">
        <ele>1057</ele>
        <time>2021-09-15T13:30:34Z</time>
      </trkpt>
      <trkpt lat="46.4961" lon="6.07794">
        <ele>1058</ele>
        <time>2021-09-15T13:31:32Z</time>
      </trkpt>
      <trkpt lat="46.49614" lon="6.07818">
        <ele>1058</ele>
        <time>2021-09-15T13:31:54Z</time>
      </trkpt>
      <trkpt lat="46.49613" lon="6.07856">
        <ele>1060</ele>
        <time>2021-09-15T13:32:29Z</time>
      </trkpt>
      <trkpt lat="46.49618" lon="6.07882">
        <ele>1061</ele>
        <time>2021-09-15T13:32:54Z</time>
      </trkpt>
      <trkpt lat="46.4963" lon="6.07893">
        <ele>1060</ele>
        <time>2021-09-15T13:33:13Z</time>
      </trkpt>
      <trkpt lat="46.49637" lon="6.07913">
        <ele>1060</ele>
        <time>2021-09-15T13:33:34Z</time>
      </trkpt>
      <trkpt lat="46.49646" lon="6.07923">
        <ele>1060</ele>
        <time>2021-09-15T13:33:49Z</time>
      </trkpt>
      <trkpt lat="46.49656" lon="6.07945">
        <ele>1059</ele>
        <time>2021-09-15T13:34:13Z</time>
      </trkpt>
      <trkpt lat="46.4967" lon="6.08024">
        <ele>1059</ele>
        <time>2021-09-15T13:35:28Z</time>
      </trkpt>
      <trkpt lat="46.49679" lon="6.08044">
        <ele>1060</ele>
        <time>2021-09-15T13:35:50Z</time>
      </trkpt>
      <trkpt lat="46.4969" lon="6.08089">
        <ele>1061</ele>
        <time>2021-09-15T13:36:34Z</time>
      </trkpt>
      <trkpt lat="46.49716" lon="6.08146">
        <ele>1061</ele>
        <time>2021-09-15T13:37:37Z</time>
      </trkpt>
      <trkpt lat="46.49721" lon="6.08174">
        <ele>1061</ele>
        <time>2021-09-15T13:38:03Z</time>
      </trkpt>
      <trkpt lat="46.49735" lon="6.08182">
        <ele>1060</ele>
        <time>2021-09-15T13:38:23Z</time>
      </trkpt>
      <trkpt lat="46.49757" lon="6.08228">
        <ele>1060</ele>
        <time>2021-09-15T13:39:15Z</time>
      </trkpt>
      <trkpt lat="46.49763" lon="6.08229">
        <ele>1060</ele>
        <time>2021-09-15T13:39:23Z</time>
      </trkpt>
      <trkpt lat="46.49771" lon="6.082">
        <ele>1059</ele>
        <time>2021-09-15T13:39:51Z</time>
      </trkpt>
      <trkpt lat="46.49784" lon="6.08187">
        <ele>1059</ele>
        <time>2021-09-15T13:40:12Z</time>
      </trkpt>
      <trkpt lat="46.49794" lon="6.08152">
        <ele>1058</ele>
        <time>2021-09-15T13:40:47Z</time>
      </trkpt>
      <trkpt lat="46.49803" lon="6.08144">
        <ele>1057</ele>
        <time>2021-09-15T13:41:01Z</time>
      </trkpt>
      <trkpt lat="46.49804" lon="6.08106">
        <ele>1057</ele>
        <time>2021-09-15T13:41:36Z</time>
      </trkpt>
      <trkpt lat="46.49798" lon="6.0804">
        <ele>1056</ele>
        <time>2021-09-15T13:42:37Z</time>
      </trkpt>
      <trkpt lat="46.49802" lon="6.08005">
        <ele>1056</ele>
        <time>2021-09-15T13:43:10Z</time>
      </trkpt>
      <trkpt lat="46.49812" lon="6.07987">
        <ele>1056</ele>
        <time>2021-09-15T13:43:31Z</time>
      </trkpt>
      <trkpt lat="46.49834" lon="6.07978">
        <ele>1056</ele>
        <time>2021-09-15T13:44:02Z</time>
      </trkpt>
      <trkpt lat="46.49844" lon="6.07929">
        <ele>1056</ele>
        <time>2021-09-15T13:44:49Z</time>
      </trkpt>
      <trkpt lat="46.49859" lon="6.07911">
        <ele>1056</ele>
        <time>2021-09-15T13:45:15Z</time>
      </trkpt>
      <trkpt lat="46.4987" lon="6.07878">
        <ele>1056</ele>
        <time>2021-09-15T13:45:48Z</time>
      </trkpt>
      <trkpt lat="46.49917" lon="6.07829">
        <ele>1056</ele>
        <time>2021-09-15T13:47:06Z</time>
      </trkpt>
      <trkpt lat="46.49933" lon="6.07825">
        <ele>1056</ele>
        <time>2021-09-15T13:47:27Z</time>
      </trkpt>
      <trkpt lat="46.4992" lon="6.07844">
        <ele>1056</ele>
        <time>2021-09-15T13:47:52Z</time>
      </trkpt>
      <trkpt lat="46.49923" lon="6.07836">
        <ele>1056</ele>
        <time>2021-09-15T13:48:00Z</time>
      </trkpt>
      <trkpt lat="46.49921" lon="6.0784">
        <ele>1056</ele>
        <time>2021-09-15T13:48:05Z</time>
      </trkpt>
      <trkpt lat="46.49924" lon="6.07837">
        <ele>1056</ele>
        <time>2021-09-15T13:48:10Z</time>
      </trkpt>
      <trkpt lat="46.49924" lon="6.07841">
        <ele>1056</ele>
        <time>2021-09-15T13:48:13Z</time>
      </trkpt>
      <trkpt lat="46.4993" lon="6.07843">
        <ele>1056</ele>
        <time>2021-09-15T13:48:21Z</time>
      </trkpt>
      <trkpt lat="46.49947" lon="6.07828">
        <ele>1056</ele>
        <time>2021-09-15T13:48:48Z</time>
      </trkpt>
      <trkpt lat="46.49984" lon="6.07833">
        <ele>1056</ele>
        <time>2021-09-15T13:49:38Z</time>
      </trkpt>
      <trkpt lat="46.49995" lon="6.07829">
        <ele>1057</ele>
        <time>2021-09-15T13:49:53Z</time>
      </trkpt>
      <trkpt lat="46.50017" lon="6.07803">
        <ele>1067</ele>
        <time>2021-09-15T13:50:31Z</time>
      </trkpt>
      <trkpt lat="46.50027" lon="6.07799">
        <ele>1071</ele>
        <time>2021-09-15T13:50:44Z</time>
      </trkpt>
      <trkpt lat="46.50027" lon="6.07765">
        <ele>1078</ele>
        <time>2021-09-15T13:51:16Z</time>
      </trkpt>
      <trkpt lat="46.50048" lon="6.07774">
        <ele>1085</ele>
        <time>2021-09-15T13:51:45Z</time>
      </trkpt>
      <trkpt lat="46.50078" lon="6.0783">
        <ele>1082</ele>
        <time>2021-09-15T13:52:50Z</time>
      </trkpt>
      <trkpt lat="46.50101" lon="6.07864">
        <ele>1085</ele>
        <time>2021-09-15T13:53:34Z</time>
      </trkpt>
      <trkpt lat="46.5013" lon="6.07883">
        <ele>1095</ele>
        <time>2021-09-15T13:54:16Z</time>
      </trkpt>
      <trkpt lat="46.50135" lon="6.0791">
        <ele>1091</ele>
        <time>2021-09-15T13:54:42Z</time>
      </trkpt>
      <trkpt lat="46.50186" lon="6.07949">
        <ele>1104</ele>
        <time>2021-09-15T13:55:59Z</time>
      </trkpt>
      <trkpt lat="46.50208" lon="6.07981">
        <ele>1105</ele>
        <time>2021-09-15T13:56:40Z</time>
      </trkpt>
      <trkpt lat="46.50234" lon="6.08001">
        <ele>1111</ele>
        <time>2021-09-15T13:57:20Z</time>
      </trkpt>
      <trkpt lat="46.50256" lon="6.08008">
        <ele>1118</ele>
        <time>2021-09-15T13:57:50Z</time>
      </trkpt>
      <trkpt lat="46.50273" lon="6.0802">
        <ele>1122</ele>
        <time>2021-09-15T13:58:15Z</time>
      </trkpt>
      <trkpt lat="46.50299" lon="6.08072">
        <ele>1120</ele>
        <time>2021-09-15T13:59:14Z</time>
      </trkpt>
      <trkpt lat="46.50309" lon="6.08079">
        <ele>1123</ele>
        <time>2021-09-15T13:59:29Z</time>
      </trkpt>
      <trkpt lat="46.50323" lon="6.08079">
        <ele>1129</ele>
        <time>2021-09-15T13:59:48Z</time>
      </trkpt>
      <trkpt lat="46.50344" lon="6.08097">
        <ele>1134</ele>
        <time>2021-09-15T14:00:20Z</time>
      </trkpt>
      <trkpt lat="46.50348" lon="6.08123">
        <ele>1128</ele>
        <time>2021-09-15T14:00:45Z</time>
      </trkpt>
      <trkpt lat="46.50361" lon="6.08108">
        <ele>1138</ele>
        <time>2021-09-15T14:01:07Z</time>
      </trkpt>
      <trkpt lat="46.50354" lon="6.08113">
        <ele>1134</ele>
        <time>2021-09-15T14:01:17Z</time>
      </trkpt>
      <trkpt lat="46.50356" lon="6.08121">
        <ele>1132</ele>
        <time>2021-09-15T14:01:25Z</time>
      </trkpt>
      <trkpt lat="46.50374" lon="6.08137">
        <ele>1136</ele>
        <time>2021-09-15T14:01:53Z</time>
      </trkpt>
      <trkpt lat="46.50387" lon="6.08143">
        <ele>1141</ele>
        <time>2021-09-15T14:02:11Z</time>
      </trkpt>
      <trkpt lat="46.50402" lon="6.08165">
        <ele>1143</ele>
        <time>2021-09-15T14:02:40Z</time>
      </trkpt>
      <trkpt lat="46.50415" lon="6.08176">
        <ele>1147</ele>
        <time>2021-09-15T14:03:00Z</time>
      </trkpt>
      <trkpt lat="46.50428" lon="6.08196">
        <ele>1148</ele>
        <time>2021-09-15T14:03:25Z</time>
      </trkpt>
      <trkpt lat="46.50436" lon="6.08221">
        <ele>1146</ele>
        <time>2021-09-15T14:03:50Z</time>
      </trkpt>
      <trkpt lat="46.50447" lon="6.08232">
        <ele>1148</ele>
        <time>2021-09-15T14:04:08Z</time>
      </trkpt>
      <trkpt lat="46.50455" lon="6.08237">
        <ele>1150</ele>
        <time>2021-09-15T14:04:20Z</time>
      </trkpt>
      <trkpt lat="46.50463" lon="6.0823">
        <ele>1154</ele>
        <time>2021-09-15T14:04:32Z</time>
      </trkpt>
      <trkpt lat="46.50462" lon="6.08236">
        <ele>1153</ele>
        <time>2021-09-15T14:04:38Z</time>
      </trkpt>
      <trkpt lat="46.50478" lon="6.08232">
        <ele>1160</ele>
        <time>2021-09-15T14:05:00Z</time>
      </trkpt>
      <trkpt lat="46.50501" lon="6.08238">
        <ele>1168</ele>
        <time>2021-09-15T14:05:31Z</time>
      </trkpt>
      <trkpt lat="46.50522" lon="6.08215">
        <ele>1174</ele>
        <time>2021-09-15T14:06:06Z</time>
      </trkpt>
      <trkpt lat="46.50544" lon="6.08215">
        <ele>1178</ele>
        <time>2021-09-15T14:06:35Z</time>
      </trkpt>
      <trkpt lat="46.50571" lon="6.08227">
        <ele>1182</ele>
        <time>2021-09-15T14:07:13Z</time>
      </trkpt>
      <trkpt lat="46.50575" lon="6.08225">
        <ele>1183</ele>
        <time>2021-09-15T14:07:19Z</time>
      </trkpt>
      <trkpt lat="46.50581" lon="6.08215">
        <ele>1185</ele>
        <time>2021-09-15T14:07:31Z</time>
      </trkpt>
      <trkpt lat="46.50577" lon="6.08195">
        <ele>1186</ele>
        <time>2021-09-15T14:07:50Z</time>
      </trkpt>
      <trkpt lat="46.50569" lon="6.0818">
        <ele>1186</ele>
        <time>2021-09-15T14:08:07Z</time>
      </trkpt>
      <trkpt lat="46.50558" lon="6.08173">
        <ele>1184</ele>
        <time>2021-09-15T14:08:23Z</time>
      </trkpt>
      <trkpt lat="46.5055" lon="6.08147">
        <ele>1185</ele>
        <time>2021-09-15T14:08:50Z</time>
      </trkpt>
      <trkpt lat="46.50545" lon="6.08147">
        <ele>1184</ele>
        <time>2021-09-15T14:08:56Z</time>
      </trkpt>
      <trkpt lat="46.50532" lon="6.08126">
        <ele>1183</ele>
        <time>2021-09-15T14:09:22Z</time>
      </trkpt>
      <trkpt lat="46.50531" lon="6.08097">
        <ele>1184</ele>
        <time>2021-09-15T14:09:49Z</time>
      </trkpt>
      <trkpt lat="46.50511" lon="6.08033">
        <ele>1184</ele>
        <time>2021-09-15T14:10:53Z</time>
      </trkpt>
      <trkpt lat="46.50487" lon="6.08002">
        <ele>1182</ele>
        <time>2021-09-15T14:11:36Z</time>
      </trkpt>
      <trkpt lat="46.50468" lon="6.0795">
        <ele>1186</ele>
        <time>2021-09-15T14:12:30Z</time>
      </trkpt>
      <trkpt lat="46.50461" lon="6.07944">
        <ele>1185</ele>
        <time>2021-09-15T14:12:41Z</time>
      </trkpt>
      <trkpt lat="46.5044" lon="6.07948">
        <ele>1182</ele>
        <time>2021-09-15T14:13:09Z</time>
      </trkpt>
      <trkpt lat="46.50434" lon="6.07943">
        <ele>1182</ele>
        <time>2021-09-15T14:13:19Z</time>
      </trkpt>
      <trkpt lat="46.50426" lon="6.0792">
        <ele>1183</ele>
        <time>2021-09-15T14:13:42Z</time>
      </trkpt>
      <trkpt lat="46.50402" lon="6.07876">
        <ele>1183</ele>
        <time>2021-09-15T14:14:34Z</time>
      </trkpt>
      <trkpt lat="46.50399" lon="6.07859">
        <ele>1184</ele>
        <time>2021-09-15T14:14:50Z</time>
      </trkpt>
      <trkpt lat="46.5037" lon="6.07818">
        <ele>1183</ele>
        <time>2021-09-15T14:15:44Z</time>
      </trkpt>
      <trkpt lat="46.50358" lon="6.07783">
        <ele>1183</ele>
        <time>2021-09-15T14:16:20Z</time>
      </trkpt>
      <trkpt lat="46.50346" lon="6.0777">
        <ele>1182</ele>
        <time>2021-09-15T14:16:40Z</time>
      </trkpt>
      <trkpt lat="46.5033" lon="6.07767">
        <ele>1180</ele>
        <time>2021-09-15T14:17:01Z</time>
      </trkpt>
      <trkpt lat="46.50313" lon="6.07796">
        <ele>1174</ele>
        <time>2021-09-15T14:17:36Z</time>
      </trkpt>
      <trkpt lat="46.50301" lon="6.07834">
        <ele>1169</ele>
        <time>2021-09-15T14:18:15Z</time>
      </trkpt>
      <trkpt lat="46.50277" lon="6.07853">
        <ele>1160</ele>
        <time>2021-09-15T14:18:51Z</time>
      </trkpt>
      <trkpt lat="46.50276" lon="6.07847">
        <ele>1160</ele>
        <time>2021-09-15T14:18:57Z</time>
      </trkpt>
      <trkpt lat="46.5028" lon="6.07851">
        <ele>1161</ele>
        <time>2021-09-15T14:19:03Z</time>
      </trkpt>
      <trkpt lat="46.50288" lon="6.07847">
        <ele>1164</ele>
        <time>2021-09-15T14:19:15Z</time>
      </trkpt>
      <trkpt lat="46.50313" lon="6.07821">
        <ele>1173</ele>
        <time>2021-09-15T14:19:56Z</time>
      </trkpt>
      <trkpt lat="46.50308" lon="6.07816">
        <ele>1172</ele>
        <time>2021-09-15T14:20:04Z</time>
      </trkpt>
      <trkpt lat="46.50309" lon="6.07797">
        <ele>1174</ele>
        <time>2021-09-15T14:20:21Z</time>
      </trkpt>
      <trkpt lat="46.50301" lon="6.078">
        <ele>1172</ele>
        <time>2021-09-15T14:20:32Z</time>
      </trkpt>
      <trkpt lat="46.50296" lon="6.07792">
        <ele>1171</ele>
        <time>2021-09-15T14:20:42Z</time>
      </trkpt>
      <trkpt lat="46.50283" lon="6.07744">
        <ele>1173</ele>
        <time>2021-09-15T14:21:30Z</time>
      </trkpt>
      <trkpt lat="46.50268" lon="6.07723">
        <ele>1172</ele>
        <time>2021-09-15T14:21:57Z</time>
      </trkpt>
      <trkpt lat="46.50235" lon="6.07702">
        <ele>1167</ele>
        <time>2021-09-15T14:22:46Z</time>
      </trkpt>
      <trkpt lat="46.50221" lon="6.07679">
        <ele>1166</ele>
        <time>2021-09-15T14:23:14Z</time>
      </trkpt>
      <trkpt lat="46.50206" lon="6.07666">
        <ele>1164</ele>
        <time>2021-09-15T14:23:37Z</time>
      </trkpt>
      <trkpt lat="46.50191" lon="6.07634">
        <ele>1164</ele>
        <time>2021-09-15T14:24:13Z</time>
      </trkpt>
      <trkpt lat="46.50169" lon="6.07625">
        <ele>1160</ele>
        <time>2021-09-15T14:24:43Z</time>
      </trkpt>
      <trkpt lat="46.50134" lon="6.07594">
        <ele>1152</ele>
        <time>2021-09-15T14:25:38Z</time>
      </trkpt>
      <trkpt lat="46.50113" lon="6.07581">
        <ele>1147</ele>
        <time>2021-09-15T14:26:08Z</time>
      </trkpt>
      <trkpt lat="46.50103" lon="6.07568">
        <ele>1146</ele>
        <time>2021-09-15T14:26:26Z</time>
      </trkpt>
      <trkpt lat="46.50099" lon="6.07552">
        <ele>1147</ele>
        <time>2021-09-15T14:26:42Z</time>
      </trkpt>
      <trkpt lat="46.50075" lon="6.07524">
        <ele>1143</ele>
        <time>2021-09-15T14:27:23Z</time>
      </trkpt>
      <trkpt lat="46.50052" lon="6.07507">
        <ele>1137</ele>
        <time>2021-09-15T14:27:57Z</time>
      </trkpt>
      <trkpt lat="46.50039" lon="6.07487">
        <ele>1136</ele>
        <time>2021-09-15T14:28:23Z</time>
      </trkpt>
      <trkpt lat="46.49984" lon="6.07452">
        <ele>1124</ele>
        <time>2021-09-15T14:29:43Z</time>
      </trkpt>
      <trkpt lat="46.49973" lon="6.07452">
        <ele>1119</ele>
        <time>2021-09-15T14:29:57Z</time>
      </trkpt>
      <trkpt lat="46.49961" lon="6.07446">
        <ele>1115</ele>
        <time>2021-09-15T14:30:14Z</time>
      </trkpt>
      <trkpt lat="46.49924" lon="6.07408">
        <ele>1109</ele>
        <time>2021-09-15T14:31:15Z</time>
      </trkpt>
      <trkpt lat="46.49895" lon="6.07394">
        <ele>1101</ele>
        <time>2021-09-15T14:31:56Z</time>
      </trkpt>
      <trkpt lat="46.49871" lon="6.07373">
        <ele>1097</ele>
        <time>2021-09-15T14:32:33Z</time>
      </trkpt>
      <trkpt lat="46.49871" lon="6.07377">
        <ele>1096</ele>
        <time>2021-09-15T14:32:37Z</time>
      </trkpt>
      <trkpt lat="46.49871" lon="6.07374">
        <ele>1097</ele>
        <time>2021-09-15T14:32:39Z</time>
      </trkpt>
      <trkpt lat="46.49852" lon="6.07388">
        <ele>1085</ele>
        <time>2021-09-15T14:33:08Z</time>
      </trkpt>
      <trkpt lat="46.49823" lon="6.07364">
        <ele>1080</ele>
        <time>2021-09-15T14:33:52Z</time>
      </trkpt>
      <trkpt lat="46.49803" lon="6.07357">
        <ele>1077</ele>
        <time>2021-09-15T14:34:20Z</time>
      </trkpt>
      <trkpt lat="46.49795" lon="6.07366">
        <ele>1073</ele>
        <time>2021-09-15T14:34:33Z</time>
      </trkpt>
      <trkpt lat="46.49794" lon="6.07379">
        <ele>1071</ele>
        <time>2021-09-15T14:34:45Z</time>
      </trkpt>
      <trkpt lat="46.4979" lon="6.07382">
        <ele>1070</ele>
        <time>2021-09-15T14:34:51Z</time>
      </trkpt>
      <trkpt lat="46.4978" lon="6.07381">
        <ele>1068</ele>
        <time>2021-09-15T14:35:05Z</time>
      </trkpt>
      <trkpt lat="46.49772" lon="6.07375">
        <ele>1067</ele>
        <time>2021-09-15T14:35:17Z</time>
      </trkpt>
      <trkpt lat="46.49757" lon="6.07376">
        <ele>1064</ele>
        <time>2021-09-15T14:35:37Z</time>
      </trkpt>
      <trkpt lat="46.49733" lon="6.07392">
        <ele>1062</ele>
        <time>2021-09-15T14:36:12Z</time>
      </trkpt>
      <trkpt lat="46.49708" lon="6.074">
        <ele>1062</ele>
        <time>2021-09-15T14:36:46Z</time>
      </trkpt>
      <trkpt lat="46.49702" lon="6.0741">
        <ele>1062</ele>
        <time>2021-09-15T14:36:58Z</time>
      </trkpt>
      <trkpt lat="46.49686" lon="6.07418">
        <ele>1062</ele>
        <time>2021-09-15T14:37:21Z</time>
      </trkpt>
      <trkpt lat="46.49664" lon="6.07416">
        <ele>1062</ele>
        <time>2021-09-15T14:37:50Z</time>
      </trkpt>
      <trkpt lat="46.49651" lon="6.07405">
        <ele>1063</ele>
        <time>2021-09-15T14:38:10Z</time>
      </trkpt>
      <trkpt lat="46.49642" lon="6.07389">
        <ele>1064</ele>
        <time>2021-09-15T14:38:29Z</time>
      </trkpt>
      <trkpt lat="46.49641" lon="6.07375">
        <ele>1065</ele>
        <time>2021-09-15T14:38:42Z</time>
      </trkpt>
      <trkpt lat="46.49625" lon="6.0735">
        <ele>1066</ele>
        <time>2021-09-15T14:39:14Z</time>
      </trkpt>
      <trkpt lat="46.49588" lon="6.07261">
        <ele>1069</ele>
        <time>2021-09-15T14:40:49Z</time>
      </trkpt>
      <trkpt lat="46.49539" lon="6.0716">
        <ele>1072</ele>
        <time>2021-09-15T14:42:43Z</time>
      </trkpt>
      <trkpt lat="46.49529" lon="6.07146">
        <ele>1072</ele>
        <time>2021-09-15T14:43:01Z</time>
      </trkpt>
      <trkpt lat="46.49514" lon="6.07084">
        <ele>1073</ele>
        <time>2021-09-15T14:44:02Z</time>
      </trkpt>
      <trkpt lat="46.4949" lon="6.0703">
        <ele>1073</ele>
        <time>2021-09-15T14:45:01Z</time>
      </trkpt>
      <trkpt lat="46.4946" lon="6.06935">
        <ele>1075</ele>
        <time>2021-09-15T14:46:37Z</time>
      </trkpt>
      <trkpt lat="46.49436" lon="6.06899">
        <ele>1078</ele>
        <time>2021-09-15T14:47:23Z</time>
      </trkpt>
      <trkpt lat="46.49396" lon="6.06866">
        <ele>1082</ele>
        <time>2021-09-15T14:48:24Z</time>
      </trkpt>
      <trkpt lat="46.49377" lon="6.0684">
        <ele>1083</ele>
        <time>2021-09-15T14:48:59Z</time>
      </trkpt>
      <trkpt lat="46.49371" lon="6.06817">
        <ele>1084</ele>
        <time>2021-09-15T14:49:22Z</time>
      </trkpt>
      <trkpt lat="46.4936" lon="6.06807">
        <ele>1084</ele>
        <time>2021-09-15T14:49:39Z</time>
      </trkpt>
      <trkpt lat="46.49328" lon="6.06734">
        <ele>1085</ele>
        <time>2021-09-15T14:50:58Z</time>
      </trkpt>
      <trkpt lat="46.4932" lon="6.06707">
        <ele>1086</ele>
        <time>2021-09-15T14:51:25Z</time>
      </trkpt>
      <trkpt lat="46.4931" lon="6.06693">
        <ele>1087</ele>
        <time>2021-09-15T14:51:44Z</time>
      </trkpt>
      <trkpt lat="46.49292" lon="6.06689">
        <ele>1087</ele>
        <time>2021-09-15T14:52:08Z</time>
      </trkpt>
      <trkpt lat="46.49278" lon="6.06691">
        <ele>1087</ele>
        <time>2021-09-15T14:52:27Z</time>
      </trkpt>
      <trkpt lat="46.49262" lon="6.06704">
        <ele>1087</ele>
        <time>2021-09-15T14:52:51Z</time>
      </trkpt>
      <trkpt lat="46.49257" lon="6.06715">
        <ele>1087</ele>
        <time>2021-09-15T14:53:04Z</time>
      </trkpt>
      <trkpt lat="46.49249" lon="6.06718">
        <ele>1087</ele>
        <time>2021-09-15T14:53:15Z</time>
      </trkpt>
      <trkpt lat="46.49227" lon="6.06749">
        <ele>1088</ele>
        <time>2021-09-15T14:53:55Z</time>
      </trkpt>
      <trkpt lat="46.49204" lon="6.0679">
        <ele>1090</ele>
        <time>2021-09-15T14:54:44Z</time>
      </trkpt>
      <trkpt lat="46.49202" lon="6.06801">
        <ele>1090</ele>
        <time>2021-09-15T14:54:55Z</time>
      </trkpt>
      <trkpt lat="46.49174" lon="6.0683">
        <ele>1092</ele>
        <time>2021-09-15T14:55:40Z</time>
      </trkpt>
      <trkpt lat="46.49157" lon="6.0684">
        <ele>1092</ele>
        <time>2021-09-15T14:56:05Z</time>
      </trkpt>
      <trkpt lat="46.49123" lon="6.0684">
        <ele>1093</ele>
        <time>2021-09-15T14:56:50Z</time>
      </trkpt>
      <trkpt lat="46.49102" lon="6.06828">
        <ele>1093</ele>
        <time>2021-09-15T14:57:20Z</time>
      </trkpt>
      <trkpt lat="46.49072" lon="6.06803">
        <ele>1095</ele>
        <time>2021-09-15T14:58:07Z</time>
      </trkpt>
      <trkpt lat="46.49042" lon="6.06789">
        <ele>1096</ele>
        <time>2021-09-15T14:58:49Z</time>
      </trkpt>
      <trkpt lat="46.49028" lon="6.06776">
        <ele>1095</ele>
        <time>2021-09-15T14:59:11Z</time>
      </trkpt>
      <trkpt lat="46.49013" lon="6.06775">
        <ele>1095</ele>
        <time>2021-09-15T14:59:31Z</time>
      </trkpt>
      <trkpt lat="46.48999" lon="6.06766">
        <ele>1095</ele>
        <time>2021-09-15T14:59:51Z</time>
      </trkpt>
      <trkpt lat="46.48976" lon="6.06766">
        <ele>1096</ele>
        <time>2021-09-15T15:00:22Z</time>
      </trkpt>
      <trkpt lat="46.48975" lon="6.06762">
        <ele>1096</ele>
        <time>2021-09-15T15:00:26Z</time>
      </trkpt>
      <trkpt lat="46.48959" lon="6.06759">
        <ele>1097</ele>
        <time>2021-09-15T15:00:47Z</time>
      </trkpt>
      <trkpt lat="46.48953" lon="6.06768">
        <ele>1098</ele>
        <time>2021-09-15T15:00:59Z</time>
      </trkpt>
      <trkpt lat="46.4894" lon="6.0677">
        <ele>1098</ele>
        <time>2021-09-15T15:01:16Z</time>
      </trkpt>
      <trkpt lat="46.48897" lon="6.06741">
        <ele>1098</ele>
        <time>2021-09-15T15:02:20Z</time>
      </trkpt>
      <trkpt lat="46.48874" lon="6.0674">
        <ele>1098</ele>
        <time>2021-09-15T15:02:50Z</time>
      </trkpt>
      <trkpt lat="46.48858" lon="6.06723">
        <ele>1099</ele>
        <time>2021-09-15T15:03:17Z</time>
      </trkpt>
      <trkpt lat="46.48827" lon="6.06715">
        <ele>1099</ele>
        <time>2021-09-15T15:03:59Z</time>
      </trkpt>
      <trkpt lat="46.48807" lon="6.06699">
        <ele>1100</ele>
        <time>2021-09-15T15:04:29Z</time>
      </trkpt>
      <trkpt lat="46.48784" lon="6.0669">
        <ele>1100</ele>
        <time>2021-09-15T15:05:01Z</time>
      </trkpt>
      <trkpt lat="46.48767" lon="6.06666">
        <ele>1100</ele>
        <time>2021-09-15T15:05:33Z</time>
      </trkpt>
      <trkpt lat="46.48757" lon="6.06666">
        <ele>1100</ele>
        <time>2021-09-15T15:05:46Z</time>
      </trkpt>
      <trkpt lat="46.48711" lon="6.06642">
        <ele>1104</ele>
        <time>2021-09-15T15:06:51Z</time>
      </trkpt>
      <trkpt lat="46.48693" lon="6.06637">
        <ele>1106</ele>
        <time>2021-09-15T15:07:16Z</time>
      </trkpt>
      <trkpt lat="46.48676" lon="6.06624">
        <ele>1107</ele>
        <time>2021-09-15T15:07:41Z</time>
      </trkpt>
      <trkpt lat="46.48676" lon="6.06597">
        <ele>1107</ele>
        <time>2021-09-15T15:08:06Z</time>
      </trkpt>
      <trkpt lat="46.48667" lon="6.06567">
        <ele>1107</ele>
        <time>2021-09-15T15:08:36Z</time>
      </trkpt>
      <trkpt lat="46.48668" lon="6.0655">
        <ele>1106</ele>
        <time>2021-09-15T15:08:52Z</time>
      </trkpt>
      <trkpt lat="46.48653" lon="6.06513">
        <ele>1108</ele>
        <time>2021-09-15T15:09:31Z</time>
      </trkpt>
      <trkpt lat="46.48639" lon="6.06427">
        <ele>1112</ele>
        <time>2021-09-15T15:10:53Z</time>
      </trkpt>
      <trkpt lat="46.48619" lon="6.06369">
        <ele>1116</ele>
        <time>2021-09-15T15:11:52Z</time>
      </trkpt>
      <trkpt lat="46.48611" lon="6.06317">
        <ele>1117</ele>
        <time>2021-09-15T15:12:41Z</time>
      </trkpt>
      <trkpt lat="46.48597" lon="6.06271">
        <ele>1118</ele>
        <time>2021-09-15T15:13:27Z</time>
      </trkpt>
      <trkpt lat="46.48572" lon="6.06149">
        <ele>1117</ele>
        <time>2021-09-15T15:15:24Z</time>
      </trkpt>
      <trkpt lat="46.48563" lon="6.06122">
        <ele>1117</ele>
        <time>2021-09-15T15:15:52Z</time>
      </trkpt>
      <trkpt lat="46.48557" lon="6.06124">
        <ele>1117</ele>
        <time>2021-09-15T15:16:00Z</time>
      </trkpt>
      <trkpt lat="46.48562" lon="6.06119">
        <ele>1117</ele>
        <time>2021-09-15T15:16:08Z</time>
      </trkpt>
      <trkpt lat="46.48559" lon="6.06122">
        <ele>1117</ele>
        <time>2021-09-15T15:16:13Z</time>
      </trkpt>
      <trkpt lat="46.48561" lon="6.06109">
        <ele>1116</ele>
        <time>2021-09-15T15:16:25Z</time>
      </trkpt>
      <trkpt lat="46.48553" lon="6.06088">
        <ele>1116</ele>
        <time>2021-09-15T15:16:47Z</time>
      </trkpt>
      <trkpt lat="46.48552" lon="6.06056">
        <ele>1114</ele>
        <time>2021-09-15T15:17:17Z</time>
      </trkpt>
      <trkpt lat="46.48561" lon="6.06055">
        <ele>1115</ele>
        <time>2021-09-15T15:17:29Z</time>
      </trkpt>
      <trkpt lat="46.48563" lon="6.06049">
        <ele>1114</ele>
        <time>2021-09-15T15:17:35Z</time>
      </trkpt>
      <trkpt lat="46.48557" lon="6.06038">
        <ele>1114</ele>
        <time>2021-09-15T15:17:48Z</time>
      </trkpt>
      <trkpt lat="46.48531" lon="6.06018">
        <ele>1111</ele>
        <time>2021-09-15T15:18:27Z</time>
      </trkpt>
      <trkpt lat="46.48509" lon="6.06019">
        <ele>1110</ele>
        <time>2021-09-15T15:18:56Z</time>
      </trkpt>
      <trkpt lat="46.48496" lon="6.06012">
        <ele>1110</ele>
        <time>2021-09-15T15:19:15Z</time>
      </trkpt>
      <trkpt lat="46.4849" lon="6.05995">
        <ele>1109</ele>
        <time>2021-09-15T15:19:32Z</time>
      </trkpt>
      <trkpt lat="46.48496" lon="6.05972">
        <ele>1108</ele>
        <time>2021-09-15T15:19:55Z</time>
      </trkpt>
      <trkpt lat="46.48494" lon="6.05963">
        <ele>1108</ele>
        <time>2021-09-15T15:20:04Z</time>
      </trkpt>
    </trkseg>
  </trk>
</gpx>